Time;durP1;ratioP1;P1;durP2;ratioP2;P2;SDS_P1;SDS_P2;PMS_P1;PMS_P2;Temp;Humidity;BMP_temperature;BMP_pressure;BME280_temperature;BME280_humidity;BME280_pressure;Samples;Min_cycle;Max_cycle;Signal;HPM_P1;HPM_P2
2022/01/16 04:15:35;;;;;;;16.85;8.00;;;;;;;6.00;100.00;102054.94;4739539;22;10368922;-80
2022/01/16 04:18:14;;;;;;;14.20;6.80;;;;;;;6.01;100.00;102049.03;4977430;28;20039;-81
2022/01/16 04:20:43;;;;;;;17.45;6.80;;;;;;;6.00;100.00;102058.41;4991457;28;20109;-79
2022/01/16 04:23:11;;;;;;;12.98;6.28;;;;;;;6.01;100.00;102059.31;4980515;28;20070;-82
2022/01/16 04:25:40;;;;;;;19.23;7.95;;;;;;;5.99;100.00;102058.31;4972947;28;20086;-82
2022/01/16 04:28:08;;;;;;;20.33;8.10;;;;;;;5.99;100.00;102063.44;4973598;28;20051;-83
2022/01/16 04:30:39;;;;;;;16.20;7.38;;;;;;;5.97;100.00;102063.31;4980905;28;20053;-83
2022/01/16 04:33:07;;;;;;;14.15;6.72;;;;;;;5.97;100.00;102063.31;4991011;28;20078;-82
2022/01/16 04:35:36;;;;;;;17.30;8.57;;;;;;;5.98;100.00;102059.06;4989858;28;20042;-83
2022/01/16 04:38:05;;;;;;;14.52;8.10;;;;;;;5.99;100.00;102063.44;4996513;28;20080;-81
2022/01/16 04:40:42;;;;;;;17.35;9.25;;;;;;;5.98;100.00;102059.06;4981857;28;20051;-81
2022/01/16 04:46:01;;;;;;;17.05;7.90;;;;;;;5.98;100.00;102059.06;4989228;28;20061;-82
2022/01/16 04:48:29;;;;;;;15.27;8.15;;;;;;;5.98;100.00;102070.25;4995223;28;20055;-82
2022/01/16 04:50:58;;;;;;;18.25;7.55;;;;;;;5.99;100.00;102060.88;4981783;28;20051;-82
2022/01/16 04:53:26;;;;;;;19.50;8.95;;;;;;;5.97;100.00;102063.31;4987760;28;20070;-82
2022/01/16 04:55:55;;;;;;;16.80;6.93;;;;;;;5.94;100.00;102054.50;4989604;28;20538;-82
2022/01/16 04:58:23;;;;;;;16.00;7.72;;;;;;;5.93;100.00;102055.25;4994081;28;20092;-81
2022/01/16 05:00:52;;;;;;;11.70;6.20;;;;;;;5.86;100.00;102054.88;4982161;28;20488;-81
2022/01/16 05:03:22;;;;;;;14.40;6.75;;;;;;;5.77;100.00;102043.03;4991799;28;20050;-82
2022/01/16 05:05:51;;;;;;;14.32;7.03;;;;;;;5.82;100.00;102054.53;4984916;28;20062;-82
2022/01/16 05:08:19;;;;;;;17.65;6.78;;;;;;;5.71;100.00;102060.59;4975199;28;20126;-82
2022/01/16 05:10:48;;;;;;;17.25;6.45;;;;;;;5.67;100.00;102050.09;4993819;28;20554;-82
2022/01/16 05:13:30;;;;;;;11.70;6.40;;;;;;;5.59;100.00;102053.81;4968344;28;20051;-81
2022/01/16 05:18:46;;;;;;;12.68;5.70;;;;;;;5.53;100.00;102067.91;4969963;28;20098;-82
2022/01/16 05:21:14;;;;;;;16.08;6.28;;;;;;;5.49;100.00;102064.22;4967536;28;20055;-81
2022/01/16 05:23:43;;;;;;;13.13;6.55;;;;;;;5.44;100.00;102066.44;4973703;28;20102;-81
2022/01/16 05:26:13;;;;;;;10.63;5.55;;;;;;;5.43;100.00;102063.81;4955240;28;20485;-81
2022/01/16 05:28:41;;;;;;;11.90;6.53;;;;;;;5.43;100.00;102072.38;4958085;28;20082;-80
2022/01/16 05:31:10;;;;;;;11.10;5.50;;;;;;;5.46;100.00;102072.59;4974218;28;20137;-81
2022/01/16 05:33:39;;;;;;;12.27;5.85;;;;;;;5.47;100.00;102068.34;4960023;28;20133;-80
2022/01/16 05:36:09;;;;;;;9.32;5.85;;;;;;;5.41;100.00;102066.25;4966953;28;20132;-81
2022/01/16 05:38:38;;;;;;;11.93;6.18;;;;;;;5.36;100.00;102075.31;4968256;28;20043;-81
2022/01/16 05:41:07;;;;;;;11.55;6.70;;;;;;;5.33;100.00;102075.06;4955329;28;20131;-81
2022/01/16 05:43:36;;;;;;;15.43;6.70;;;;;;;5.27;100.00;102058.31;4953279;28;20474;-81
2022/01/16 05:46:05;;;;;;;11.20;5.50;;;;;;;5.23;100.00;102046.97;4972948;28;20049;-81
2022/01/16 05:48:33;;;;;;;14.40;6.63;;;;;;;5.33;100.00;102069.03;4973766;28;20137;-80
2022/01/16 05:51:02;;;;;;;14.15;6.43;;;;;;;5.32;100.00;102057.00;4970642;28;20054;-80
2022/01/16 05:53:32;;;;;;;13.57;6.65;;;;;;;5.32;100.00;102055.31;4953244;28;20525;-82
2022/01/16 05:56:01;;;;;;;13.60;6.88;;;;;;;5.34;100.00;102060.56;4968363;28;20508;-82
2022/01/16 05:58:29;;;;;;;14.15;7.00;;;;;;;5.37;100.00;102055.66;4961270;28;20057;-81
2022/01/16 06:00:58;;;;;;;14.57;6.72;;;;;;;5.40;100.00;102056.75;4973472;28;20082;-81
2022/01/16 06:03:27;;;;;;;15.85;6.22;;;;;;;5.41;100.00;102048.28;4967289;28;20057;-81
2022/01/16 06:05:55;;;;;;;14.05;7.15;;;;;;;5.43;100.00;102050.97;4965963;28;20128;-81
2022/01/16 06:08:24;;;;;;;17.70;7.28;;;;;;;5.45;100.00;102044.22;4973147;28;20109;-80
2022/01/16 06:10:54;;;;;;;14.40;6.47;;;;;;;5.49;100.00;102050.50;4973015;28;20651;-79
2022/01/16 06:13:23;;;;;;;12.40;6.05;;;;;;;5.45;100.00;102050.28;4972048;28;20050;-81
2022/01/16 06:15:52;;;;;;;11.82;6.38;;;;;;;5.46;100.00;102046.91;4972697;28;20125;-81
2022/01/16 06:18:20;;;;;;;19.23;7.78;;;;;;;5.49;100.00;102045.34;4974800;28;20109;-81
2022/01/16 06:20:49;;;;;;;13.68;7.00;;;;;;;5.52;100.00;102040.44;4978488;28;20054;-86
2022/01/16 06:23:18;;;;;;;13.45;6.30;;;;;;;5.53;100.00;102043.13;4992278;28;20065;-84
2022/01/16 06:25:54;;;;;;;13.05;6.63;;;;;;;5.54;100.00;102041.44;4994354;28;20046;-85
2022/01/16 06:28:25;;;;;;;11.70;6.43;;;;;;;5.56;100.00;102048.44;4976044;28;20043;-84
2022/01/16 06:30:53;;;;;;;15.80;6.82;;;;;;;5.57;100.00;102045.13;4971288;29;20051;-86
2022/01/16 06:33:22;;;;;;;25.38;10.27;;;;;;;5.58;100.00;102036.63;4982939;28;20078;-86
2022/01/16 06:35:50;;;;;;;23.25;9.32;;;;;;;5.60;100.00;102031.59;5002284;28;20046;-83
2022/01/16 06:38:20;;;;;;;22.02;8.35;;;;;;;5.60;100.00;102036.72;5010784;28;20054;-86
2022/01/16 06:40:51;;;;;;;14.45;6.70;;;;;;;5.59;100.00;102043.56;4995456;28;20042;-83
2022/01/16 06:43:19;;;;;;;15.85;7.22;;;;;;;5.58;100.00;102043.44;4990575;28;20041;-87
2022/01/16 06:45:49;;;;;;;14.07;7.07;;;;;;;5.56;100.00;102035.63;4965141;28;20115;-84
2022/01/16 06:48:18;;;;;;;14.80;6.95;;;;;;;5.53;100.00;102045.69;4970011;28;20051;-84
2022/01/16 06:50:46;;;;;;;19.25;7.38;;;;;;;5.47;100.00;102037.53;4984312;28;20050;-84
2022/01/16 06:53:15;;;;;;;15.20;6.88;;;;;;;5.44;100.00;102042.47;4969702;28;20059;-81
2022/01/16 06:55:43;;;;;;;13.38;6.43;;;;;;;5.41;100.00;102042.25;4968997;28;20055;-81
2022/01/16 06:58:12;;;;;;;19.38;8.02;;;;;;;5.35;100.00;102035.00;4959247;28;20101;-82
2022/01/16 07:00:40;;;;;;;18.52;7.50;;;;;;;5.33;100.00;102030.53;4976571;28;20547;-84
2022/01/16 07:03:11;;;;;;;16.40;6.95;;;;;;;5.29;100.00;102031.09;4973990;28;20046;-82
2022/01/16 07:05:39;;;;;;;12.32;6.63;;;;;;;5.30;100.00;102033.78;4966350;28;20047;-85
2022/01/16 07:08:08;;;;;;;17.00;7.13;;;;;;;5.34;100.00;102032.34;4969277;28;20500;-82
2022/01/16 07:10:36;;;;;;;14.63;6.35;;;;;;;5.34;100.00;102034.91;4973514;28;20531;-82
2022/01/16 07:13:05;;;;;;;14.30;6.85;;;;;;;5.33;100.00;102036.56;4979438;28;20050;-83
2022/01/16 07:15:34;;;;;;;16.88;6.30;;;;;;;5.35;100.00;102039.25;4985091;28;20062;-83
2022/01/16 07:18:03;;;;;;;15.82;6.63;;;;;;;5.36;100.00;102041.00;4978056;28;20047;-83
2022/01/16 07:20:33;;;;;;;11.98;6.65;;;;;;;5.34;100.00;102030.66;4980267;28;20081;-83
2022/01/16 07:23:02;;;;;;;15.60;6.85;;;;;;;5.32;100.00;102036.47;4982195;28;20079;-82
2022/01/16 07:25:30;;;;;;;12.85;6.60;;;;;;;5.23;100.00;102031.56;4972838;28;20077;-81
2022/01/16 07:27:59;;;;;;;18.85;6.88;;;;;;;5.18;100.00;102038.06;4970049;28;20051;-82
2022/01/16 07:30:28;;;;;;;14.60;6.72;;;;;;;5.17;100.00;102039.69;4985385;28;20054;-83
2022/01/16 07:32:56;;;;;;;12.88;6.72;;;;;;;5.19;100.00;102030.44;4979133;28;20493;-83
2022/01/16 07:35:25;;;;;;;18.27;6.93;;;;;;;5.16;100.00;102040.50;4976822;28;20071;-83
2022/01/16 07:37:55;;;;;;;12.95;7.03;;;;;;;5.13;100.00;102041.94;4988442;28;20063;-83
2022/01/16 07:40:24;;;;;;;12.50;6.38;;;;;;;5.16;100.00;102027.66;4975976;28;20054;-83
2022/01/16 07:42:53;;;;;;;12.52;6.53;;;;;;;5.18;100.00;102010.72;4984953;28;20043;-83
2022/01/16 07:45:23;;;;;;;14.60;6.85;;;;;;;5.20;100.00;101998.88;5003342;28;20499;-83
2022/01/16 07:47:52;;;;;;;10.75;6.03;;;;;;;5.19;100.00;102002.22;4980884;28;20053;-82
2022/01/16 07:50:23;;;;;;;9.65;6.00;;;;;;;5.18;100.00;102013.28;4991852;28;20042;-83
2022/01/16 07:52:52;;;;;;;18.52;7.30;;;;;;;5.18;100.00;102015.84;5005208;28;20109;-83
2022/01/16 07:55:25;;;;;;;12.65;6.95;;;;;;;5.19;100.00;101994.53;4982613;28;20070;-83
2022/01/16 07:57:53;;;;;;;12.57;6.03;;;;;;;5.16;100.00;102009.72;4987630;28;20098;-82
2022/01/16 08:00:23;;;;;;;14.35;6.50;;;;;;;5.15;100.00;102023.31;4982743;28;20507;-81
2022/01/16 08:02:53;;;;;;;12.18;6.60;;;;;;;5.12;100.00;102015.41;4960959;28;20416;-82
2022/01/16 08:05:22;;;;;;;22.70;6.43;;;;;;;5.15;100.00;102018.16;4956168;28;20043;-82
2022/01/16 08:07:51;;;;;;;15.05;6.20;;;;;;;5.16;100.00;102045.63;4957089;28;20051;-82
2022/01/16 08:10:21;;;;;;;15.02;6.22;;;;;;;5.19;100.00;102066.38;4971786;28;20047;-82
2022/01/16 08:12:52;;;;;;;13.75;6.43;;;;;;;5.17;100.00;102057.66;4961271;28;20062;-83
2022/01/16 08:15:21;;;;;;;15.93;5.93;;;;;;;5.17;100.00;102016.59;4978580;28;20571;-83
2022/01/16 08:17:49;;;;;;;14.23;6.97;;;;;;;5.17;100.00;101943.88;4968932;28;20051;-83
2022/01/16 08:20:18;;;;;;;15.63;6.68;;;;;;;5.13;100.00;101929.06;4973495;28;20420;-82
2022/01/16 08:22:47;;;;;;;9.05;5.10;;;;;;;5.08;100.00;101939.00;4981292;28;20102;-81
2022/01/16 08:25:15;;;;;;;9.38;5.15;;;;;;;5.05;100.00;101936.22;4976996;28;20860;-82
2022/01/16 08:27:45;;;;;;;16.63;7.00;;;;;;;4.97;100.00;101934.78;4981793;28;20058;-82
2022/01/16 08:30:18;;;;;;;11.88;6.15;;;;;;;4.89;100.00;101929.09;4971683;28;20051;-82
2022/01/16 08:32:46;;;;;;;12.27;5.70;;;;;;;4.80;100.00;101913.94;4959618;28;20592;-82
2022/01/16 08:35:15;;;;;;;11.43;5.43;;;;;;;4.67;100.00;101901.03;4974408;28;20047;-80
2022/01/16 08:40:29;;;;;;;10.80;5.85;;;;;;;4.53;100.00;101961.56;4982278;28;20046;-82
2022/01/16 08:43:07;;;;;;;9.73;5.15;;;;;;;4.57;100.00;101965.25;4974241;28;20051;-83
2022/01/16 08:45:36;;;;;;;9.27;4.70;;;;;;;4.57;100.00;101958.44;4985732;28;20050;-83
2022/01/16 08:48:04;;;;;;;10.35;5.10;;;;;;;4.52;100.00;101974.28;4982421;28;20058;-82
2022/01/16 08:50:33;;;;;;;11.07;5.32;;;;;;;4.51;100.00;101990.44;4973103;28;20087;-83
2022/01/16 08:53:02;;;;;;;10.82;5.00;;;;;;;4.54;100.00;101995.81;4966741;28;20461;-82
2022/01/16 08:55:30;;;;;;;12.88;6.03;;;;;;;4.56;100.00;101996.81;4977265;28;20054;-82
2022/01/16 08:58:00;;;;;;;10.45;5.03;;;;;;;4.59;100.00;101977.41;4988066;28;20062;-83
2022/01/16 09:00:29;;;;;;;13.80;6.63;;;;;;;4.62;100.00;101986.97;4968841;28;20039;-83
2022/01/16 09:02:57;;;;;;;9.60;4.68;;;;;;;4.63;100.00;101932.38;4967416;28;20047;-83
2022/01/16 09:05:26;;;;;;;9.95;4.75;;;;;;;4.63;100.00;101978.53;4971551;28;20051;-80
2022/01/16 09:07:55;;;;;;;8.23;4.72;;;;;;;4.64;100.00;101946.97;4975904;28;20043;-80
2022/01/16 09:10:25;;;;;;;11.73;4.88;;;;;;;4.60;100.00;101962.91;4962250;28;20055;-81
2022/01/16 09:12:54;;;;;;;8.80;4.47;;;;;;;4.48;100.00;101941.50;4977951;28;20054;-82
2022/01/16 09:15:25;;;;;;;7.93;4.20;;;;;;;4.54;100.00;101941.97;4974715;28;20051;-80
2022/01/16 09:17:53;;;;;;;8.90;4.68;;;;;;;4.51;100.00;101942.66;4968331;28;20094;-80
2022/01/16 09:20:22;;;;;;;12.85;4.78;;;;;;;4.54;100.00;101939.41;4976768;28;20081;-81
2022/01/16 09:22:50;;;;;;;8.00;4.68;;;;;;;4.52;100.00;101952.09;4980502;28;20051;-81
2022/01/16 09:25:20;;;;;;;15.07;4.88;;;;;;;4.52;100.00;101943.53;4982757;28;20051;-80
2022/01/16 09:27:51;;;;;;;8.75;4.88;;;;;;;4.47;100.00;101943.19;4974971;28;20516;-79
2022/01/16 09:30:22;;;;;;;9.55;4.95;;;;;;;4.41;100.00;101961.56;4960638;28;20051;-79
2022/01/16 09:32:53;;;;;;;9.55;4.72;;;;;;;4.43;100.00;101960.78;4974328;28;20043;-77
2022/01/16 09:35:21;;;;;;;9.93;4.88;;;;;;;4.44;100.00;101954.88;4970664;28;20051;-85
2022/01/16 09:37:50;;;;;;;7.22;3.75;;;;;;;4.43;100.00;101953.09;4983982;28;20031;-85
2022/01/16 09:40:20;;;;;;;6.82;4.07;;;;;;;4.50;100.00;101950.22;4996473;28;20046;-86
2022/01/16 09:42:49;;;;;;;8.30;4.15;;;;;;;4.51;100.00;101957.09;4981011;28;20043;-83
2022/01/16 09:45:20;;;;;;;6.70;3.85;;;;;;;4.52;100.00;101969.16;4976291;28;20552;-88
2022/01/16 09:47:52;;;;;;;7.00;3.78;;;;;;;4.54;100.00;101977.84;4982520;28;20031;-84
2022/01/16 09:50:21;;;;;;;;;;;;;;;4.56;100.00;101981.44;4983161;28;20078;-85
2022/01/16 09:52:50;;;;;;;6.88;3.42;;;;;;;4.57;100.00;101988.31;4982189;28;19915;-86
2022/01/16 09:55:20;;;;;;;8.02;4.05;;;;;;;4.59;100.00;101981.63;4988203;28;20058;-88
2022/01/16 09:57:49;;;;;;;5.78;3.47;;;;;;;4.60;100.00;101992.03;4991148;28;20071;-86
2022/01/16 10:00:21;;;;;;;10.35;4.18;;;;;;;4.64;100.00;101997.34;4994610;28;20055;-83
2022/01/16 10:02:53;;;;;;;7.45;3.97;;;;;;;4.66;100.00;102004.38;4990587;28;20050;-85
2022/01/16 10:05:27;;;;;;;7.75;3.72;;;;;;;4.67;100.00;102011.28;4993377;28;20070;-86
2022/01/16 10:07:58;;;;;;;8.57;3.75;;;;;;;4.68;100.00;102018.22;4973373;28;20063;-86
2022/01/16 10:10:29;;;;;;;8.88;4.43;;;;;;;4.68;100.00;102007.06;4988036;28;20055;-86
2022/01/16 10:13:05;;;;;;;6.28;3.72;;;;;;;4.67;100.00;102003.59;4998038;28;20050;-87
2022/01/16 10:15:34;;;;;;;8.40;3.75;;;;;;;4.66;100.00;101989.00;4982223;28;20082;-84
2022/01/16 10:18:09;;;;;;;6.82;3.13;;;;;;;4.68;100.00;101982.31;4988850;28;20110;-85
2022/01/16 10:20:46;;;;;;;7.05;3.55;;;;;;;4.68;100.00;101977.19;4978720;28;20054;-85
2022/01/16 10:23:21;;;;;;;8.80;4.43;;;;;;;4.69;100.00;101955.00;4997893;28;20054;-86
2022/01/16 10:25:50;;;;;;;12.43;5.15;;;;;;;4.70;100.00;101938.84;4997221;28;20126;-87
2022/01/16 10:28:23;;;;;;;10.15;4.03;;;;;;;4.69;100.00;101937.94;5012565;28;20191;-86
2022/01/16 10:30:51;;;;;;;;;;;;;;;4.67;100.00;101960.00;4980172;28;20058;-86
2022/01/16 10:33:23;;;;;;;7.43;3.75;;;;;;;4.64;100.00;101944.41;4990628;28;19910;-86
2022/01/16 10:35:54;;;;;;;8.07;3.53;;;;;;;4.65;100.00;101937.59;4996577;28;20062;-86
2022/01/16 10:38:25;;;;;;;6.95;3.40;;;;;;;4.65;100.00;101956.47;4991153;28;20058;-83
2022/01/16 10:40:54;;;;;;;8.35;3.65;;;;;;;4.62;100.00;101969.91;4993853;28;20041;-86
2022/01/16 10:43:38;;;;;;;8.82;4.38;;;;;;;4.67;100.00;101965.13;4996948;28;20095;-86
2022/01/16 10:46:07;;;;;;;5.18;3.45;;;;;;;4.68;100.00;101943.84;4999956;28;20073;-84
2022/01/16 10:48:38;;;;;;;8.38;4.07;;;;;;;4.67;100.00;101965.13;4987322;28;20047;-86
2022/01/16 10:51:19;;;;;;;6.15;3.53;;;;;;;4.68;100.00;101961.81;4989641;28;20074;-87
2022/01/16 10:53:47;;;;;;;9.45;3.97;;;;;;;4.67;100.00;101954.88;4981976;28;20051;-85
2022/01/16 10:56:16;;;;;;;8.93;3.83;;;;;;;4.66;100.00;101953.09;4999991;28;20046;-85
2022/01/16 10:58:45;;;;;;;6.32;3.58;;;;;;;4.65;100.00;101946.22;4994095;28;20047;-86
2022/01/16 11:03:53;;;;;;;9.00;3.72;;;;;;;4.66;100.00;101960.78;4486785;26;20086;-84
2022/01/16 11:06:22;;;;;;;9.80;3.25;;;;;;;4.64;100.00;101949.53;4974173;28;20126;-86
2022/01/16 11:08:53;;;;;;;5.75;3.53;;;;;;;4.64;100.00;101954.66;4956249;29;20104;-85
2022/01/16 11:11:21;;;;;;;6.75;3.63;;;;;;;4.65;100.00;101953.91;4962902;29;20087;-84
2022/01/16 11:13:50;;;;;;;8.18;4.13;;;;;;;4.68;100.00;101950.66;4957819;29;20051;-85
2022/01/16 11:16:19;;;;;;;6.40;3.42;;;;;;;4.66;100.00;101947.97;4957289;29;20055;-85
2022/01/16 11:18:51;;;;;;;7.55;3.22;;;;;;;4.65;100.00;101938.50;4955411;28;20044;-85
2022/01/16 11:21:31;;;;;;;9.88;3.88;;;;;;;4.65;100.00;101941.09;4957956;28;20069;-85
2022/01/16 11:24:23;;;;;;;6.93;3.75;;;;;;;4.64;100.00;101938.41;4975808;28;20054;-85
2022/01/16 11:26:51;;;;;;;8.40;3.50;;;;;;;4.62;100.00;101935.72;4974800;28;20047;-84
2022/01/16 11:29:20;;;;;;;6.70;3.58;;;;;;;4.61;100.00;101934.81;4965870;28;20161;-83
2022/01/16 11:31:49;;;;;;;7.85;3.75;;;;;;;4.59;100.00;101936.38;4965957;28;20067;-84
2022/01/16 11:34:17;;;;;;;8.80;3.65;;;;;;;4.58;100.00;101929.50;4975494;28;20082;-84
2022/01/16 11:36:48;;;;;;;9.32;4.82;;;;;;;4.57;100.00;101944.75;4960875;28;20489;-84
2022/01/16 11:39:16;;;;;;;7.65;3.85;;;;;;;4.50;100.00;101928.03;4963070;28;20082;-85
2022/01/16 11:41:53;;;;;;;10.38;4.63;;;;;;;4.60;100.00;101929.56;4972305;28;20051;-84
2022/01/16 11:44:27;;;;;;;8.45;3.30;;;;;;;4.58;100.00;101923.44;4961466;28;20129;-85
2022/01/16 11:46:57;;;;;;;6.55;3.30;;;;;;;4.58;100.00;101926.00;4977331;28;20074;-85
2022/01/16 11:49:36;;;;;;;6.68;3.00;;;;;;;4.56;100.00;101937.84;4980496;28;20105;-84
2022/01/16 11:52:14;;;;;;;7.15;3.65;;;;;;;4.57;100.00;101926.81;4974172;28;20040;-85
2022/01/16 11:54:44;;;;;;;8.55;3.20;;;;;;;4.54;100.00;101921.47;4975495;28;20065;-84
2022/01/16 11:57:31;;;;;;;5.93;3.30;;;;;;;4.47;100.00;101917.56;4976725;28;20054;-85
2022/01/16 12:00:13;;;;;;;5.85;3.08;;;;;;;4.46;100.00;101922.56;4959062;28;20046;-84
2022/01/16 12:02:44;;;;;;;7.07;3.60;;;;;;;4.43;100.00;101915.56;4969004;28;20050;-84
2022/01/16 12:05:12;;;;;;;5.80;3.47;;;;;;;4.38;100.00;101920.34;4961952;28;20114;-84
2022/01/16 12:07:48;;;;;;;7.05;3.35;;;;;;;4.35;100.00;101920.13;4961924;28;20111;-84
2022/01/16 12:10:50;;;;;;;8.38;3.45;;;;;;;4.39;100.00;101916.09;4945048;28;20106;-84
2022/01/16 12:13:53;;;;;;;6.68;3.05;;;;;;;4.44;100.00;101922.44;4969312;28;20053;-84
2022/01/16 12:16:48;;;;;;;5.82;2.88;;;;;;;4.46;100.00;101925.13;4925594;29;20105;-84
2022/01/16 12:19:45;;;;;;;7.47;3.22;;;;;;;4.48;100.00;101933.81;4954092;28;20053;-84
2022/01/16 12:22:41;;;;;;;4.95;2.70;;;;;;;4.49;100.00;101940.72;4971752;28;20055;-84
2022/01/16 12:25:19;;;;;;;5.13;3.08;;;;;;;4.50;100.00;101940.84;4972471;28;20069;-85
2022/01/16 12:28:00;;;;;;;5.35;3.08;;;;;;;4.53;100.00;101945.28;4953786;28;20121;-85
2022/01/16 12:30:48;;;;;;;7.97;3.70;;;;;;;4.53;100.00;101945.28;4969206;28;20051;-85
2022/01/16 12:33:30;;;;;;;6.53;2.85;;;;;;;4.55;100.00;101938.63;4970074;28;20047;-85
2022/01/16 12:39:07;;;;;;;4.95;2.50;;;;;;;4.55;100.00;101941.19;4964312;28;20183;-84
2022/01/16 12:41:41;;;;;;;6.78;2.88;;;;;;;4.52;100.00;101934.16;4976352;28;20055;-85
2022/01/16 12:44:12;;;;;;;5.22;2.75;;;;;;;4.52;100.00;101931.59;4969530;28;20055;-85
2022/01/16 12:46:43;;;;;;;7.07;3.00;;;;;;;4.52;100.00;101926.47;4968780;28;20053;-86
2022/01/16 12:49:14;;;;;;;5.93;2.97;;;;;;;4.51;100.00;101926.34;4976051;28;20461;-85
2022/01/16 12:51:44;;;;;;;6.28;2.97;;;;;;;4.50;100.00;101922.03;4963697;28;20118;-84
2022/01/16 12:54:14;;;;;;;6.75;3.67;;;;;;;4.47;100.00;101914.13;4974447;28;20055;-86
2022/01/16 12:56:46;;;;;;;4.40;2.78;;;;;;;4.44;100.00;101914.75;4987563;28;20050;-85
2022/01/16 12:59:18;;;;;;;5.70;2.92;;;;;;;4.44;100.00;101908.75;4984562;28;20066;-85
2022/01/16 13:01:51;;;;;;;4.93;2.72;;;;;;;4.46;100.00;101896.94;4962988;28;20110;-86
2022/01/16 13:04:26;;;;;;;4.80;2.80;;;;;;;4.47;100.00;101904.75;4973450;28;20095;-85
2022/01/16 13:06:55;;;;;;;6.05;2.72;;;;;;;4.45;100.00;101902.88;4966732;28;20047;-85
2022/01/16 13:09:24;;;;;;;5.93;3.28;;;;;;;4.38;100.00;101883.59;4985977;28;20087;-85
2022/01/16 13:11:56;;;;;;;6.00;3.40;;;;;;;4.47;100.00;101884.25;4963818;28;20054;-85
2022/01/16 13:14:26;;;;;;;5.63;2.30;;;;;;;4.47;100.00;101888.50;4976565;28;20058;-85
2022/01/16 13:16:56;;;;;;;4.28;2.33;;;;;;;4.47;100.00;101885.94;4960540;28;20214;-84
2022/01/16 13:19:25;;;;;;;5.82;2.75;;;;;;;4.45;100.00;101882.34;4963655;28;20098;-83
2022/01/16 13:22:11;;;;;;;6.22;2.78;;;;;;;4.46;100.00;101889.25;4973491;28;20121;-84
2022/01/16 13:24:43;;;;;;;5.10;2.88;;;;;;;4.46;100.00;101886.69;4965342;28;20464;-83
2022/01/16 13:27:16;;;;;;;5.32;2.75;;;;;;;4.44;100.00;101880.56;4959713;28;20146;-83
2022/01/16 13:29:46;;;;;;;6.10;2.58;;;;;;;4.39;100.00;101886.22;4965498;28;20119;-85
2022/01/16 13:32:17;;;;;;;4.53;2.75;;;;;;;4.40;100.00;101892.28;4970013;28;20183;-84
2022/01/16 13:34:49;;;;;;;5.40;3.10;;;;;;;4.40;100.00;101895.72;4975380;28;20094;-84
2022/01/16 13:37:19;;;;;;;;;;;;;;;4.39;100.00;101881.09;4962121;28;20039;-84
2022/01/16 13:39:50;;;;;;;4.78;2.38;;;;;;;4.35;100.00;101874.00;4976407;28;19929;-83
2022/01/16 13:42:52;;;;;;;7.32;3.20;;;;;;;4.41;100.00;101884.69;4981734;28;20058;-84
2022/01/16 13:45:23;;;;;;;8.57;2.58;;;;;;;4.40;100.00;101867.53;4976706;28;20057;-86
2022/01/16 13:47:53;;;;;;;4.90;2.58;;;;;;;4.39;100.00;101875.97;4968818;28;20484;-85
2022/01/16 13:50:23;;;;;;;7.03;2.80;;;;;;;4.38;100.00;101871.66;4956652;28;20051;-82
2022/01/16 13:52:57;;;;;;;8.20;3.30;;;;;;;4.39;100.00;101875.97;4958798;28;20105;-81
2022/01/16 13:55:27;;;;;;;6.82;2.80;;;;;;;4.39;100.00;101875.97;4964718;28;20059;-83
2022/01/16 13:57:58;;;;;;;6.43;3.15;;;;;;;4.39;100.00;101877.66;4955378;28;20051;-81
2022/01/16 14:00:35;;;;;;;12.88;2.88;;;;;;;4.40;100.00;101882.03;4964333;28;20098;-84
2022/01/16 14:03:15;;;;;;;5.55;2.70;;;;;;;4.38;100.00;101883.59;4975169;28;20101;-86
2022/01/16 14:05:46;;;;;;;5.05;2.72;;;;;;;4.29;100.00;101873.56;4961093;28;20098;-84
2022/01/16 14:08:23;;;;;;;4.97;2.60;;;;;;;4.34;100.00;101882.44;4955842;28;20110;-85
2022/01/16 14:10:53;;;;;;;5.70;3.03;;;;;;;4.34;100.00;101879.91;4958047;28;20126;-84
2022/01/16 14:13:24;;;;;;;8.82;3.00;;;;;;;4.33;100.00;101878.13;4969913;28;20051;-85
2022/01/16 14:16:12;;;;;;;5.32;2.83;;;;;;;4.35;100.00;101873.09;4961893;28;20563;-84
2022/01/16 14:24:12;;;;;;;4.43;2.78;;;;;;;4.36;100.00;101872.31;4981720;28;20123;-86
2022/01/16 14:26:51;;;;;;;5.45;2.85;;;;;;;4.36;100.00;101880.91;4960996;28;20047;-85
2022/01/16 14:29:22;;;;;;;7.13;3.05;;;;;;;4.37;100.00;101863.84;4960792;28;20051;-85
2022/01/16 14:31:52;;;;;;;7.75;3.05;;;;;;;4.38;100.00;101863.97;4977265;28;20085;-85
2022/01/16 14:34:22;;;;;;;5.55;3.10;;;;;;;4.38;100.00;101865.66;4977305;28;20043;-85
2022/01/16 14:36:51;;;;;;;5.95;2.92;;;;;;;4.38;100.00;101868.22;4967049;28;20051;-85
2022/01/16 14:39:20;;;;;;;3.92;2.25;;;;;;;4.39;100.00;101869.97;4957603;28;20556;-83
2022/01/16 14:41:50;;;;;;;4.47;2.97;;;;;;;4.39;100.00;101863.16;4957128;28;20588;-84
2022/01/16 14:44:19;;;;;;;4.72;2.72;;;;;;;4.41;100.00;101866.75;4968395;28;20507;-84
2022/01/16 14:46:51;;;;;;;5.43;2.70;;;;;;;4.43;100.00;101871.09;4955580;28;20051;-83
2022/01/16 14:49:20;;;;;;;9.18;2.65;;;;;;;4.44;100.00;101862.63;4968284;28;20051;-83
2022/01/16 14:51:48;;;;;;;8.00;2.92;;;;;;;4.44;100.00;101860.06;4971620;28;20047;-84
2022/01/16 14:54:17;;;;;;;5.07;2.50;;;;;;;4.44;100.00;101857.50;4974438;28;20050;-84
2022/01/16 14:56:59;;;;;;;5.28;2.60;;;;;;;4.44;100.00;101847.25;4965416;28;20381;-85
2022/01/16 14:59:30;;;;;;;6.85;2.90;;;;;;;4.45;100.00;101839.69;4976692;28;20141;-85
2022/01/16 15:02:00;;;;;;;4.75;2.58;;;;;;;4.41;100.00;101833.44;4964224;28;20055;-85
2022/01/16 15:04:29;;;;;;;7.10;2.95;;;;;;;4.45;100.00;101839.69;4958039;28;20468;-85
2022/01/16 15:06:57;;;;;;;8.15;2.92;;;;;;;4.45;100.00;101842.25;4974942;28;20055;-85
2022/01/16 15:09:26;;;;;;;4.57;2.17;;;;;;;4.47;100.00;101842.34;4960761;28;20102;-84
2022/01/16 15:11:54;;;;;;;4.22;2.53;;;;;;;4.48;100.00;101839.88;4957767;28;20501;-81
2022/01/16 15:14:23;;;;;;;6.53;2.90;;;;;;;4.46;100.00;101840.56;4966076;28;20102;-83
2022/01/16 15:16:55;;;;;;;6.43;2.70;;;;;;;4.47;100.00;101843.25;4966923;28;20046;-84
2022/01/16 15:19:31;;;;;;;8.40;2.63;;;;;;;4.43;100.00;101825.84;4956102;28;20051;-84
2022/01/16 15:22:12;;;;;;;4.78;2.28;;;;;;;4.50;100.00;101838.31;4965772;28;20530;-84
2022/01/16 15:24:41;;;;;;;5.07;2.95;;;;;;;4.52;100.00;101828.19;4950829;28;20057;-84
2022/01/16 15:27:10;;;;;;;9.55;3.33;;;;;;;4.53;100.00;101828.28;4960789;28;20047;-82
2022/01/16 15:29:39;;;;;;;8.52;2.97;;;;;;;4.55;100.00;101834.41;4970855;28;20105;-81
2022/01/16 15:32:08;;;;;;;5.88;2.90;;;;;;;4.56;100.00;101830.19;4971496;28;20093;-81
2022/01/16 15:34:38;;;;;;;5.10;2.75;;;;;;;4.56;100.00;101827.63;4969347;28;20058;-82
2022/01/16 15:37:09;;;;;;;6.43;2.85;;;;;;;4.48;100.00;101824.50;4964678;28;20074;-81
2022/01/16 15:39:38;;;;;;;5.18;2.80;;;;;;;4.56;100.00;101836.22;4964608;28;20644;-81
2022/01/16 15:42:07;;;;;;;6.22;2.95;;;;;;;4.57;100.00;101829.41;4958531;28;20347;-80
2022/01/16 15:44:35;;;;;;;3.95;2.22;;;;;;;4.59;100.00;101830.41;4964268;28;20054;-81
2022/01/16 15:47:04;;;;;;;4.20;2.35;;;;;;;4.59;100.00;101838.09;4965644;28;20480;-81
2022/01/16 15:49:33;;;;;;;6.80;2.28;;;;;;;4.59;100.00;101832.97;4953993;28;20048;-80
2022/01/16 15:52:03;;;;;;;5.65;2.85;;;;;;;4.60;100.00;101832.16;4964526;28;20059;-79
2022/01/16 15:54:32;;;;;;;4.72;2.33;;;;;;;4.60;100.00;101827.03;4959353;28;20063;-81
2022/01/16 15:57:03;;;;;;;7.03;2.97;;;;;;;4.59;100.00;101822.72;4952430;28;20043;-82
2022/01/16 15:59:32;;;;;;;6.35;2.38;;;;;;;4.60;100.00;101829.59;4953224;28;20062;-81
2022/01/16 16:02:01;;;;;;;5.15;2.35;;;;;;;4.59;100.00;101825.28;4964115;28;20054;-79
2022/01/16 16:04:29;;;;;;;5.25;2.33;;;;;;;4.59;100.00;101836.41;4990924;28;20054;-82
2022/01/16 16:06:58;;;;;;;11.40;3.50;;;;;;;4.61;100.00;101833.97;4972479;28;20075;-81
2022/01/16 16:09:28;;;;;;;4.15;2.95;;;;;;;4.61;100.00;101834.84;4972442;28;20085;-81
2022/01/16 16:11:56;;;;;;;6.40;2.85;;;;;;;4.64;100.00;101834.16;4977013;28;20340;-81
2022/01/16 16:14:25;;;;;;;6.53;2.83;;;;;;;4.65;100.00;101828.28;4982046;28;20480;-81